Forbes, North Dakota
Current Conditions -  °F | °C
As of 7:40 PM on Tuesday 25 Nov 2014 (Local Time) from KABR Reporting Station
Light Snow Light Snow  
Wind Chill: 23°   Ceiling: 1300
Heat Index: 32°   Visibility: 1mi
Dew Point: 29°   Wind: 12mph
Humidity: 88%   Direction: 140°SE
Pressure: 29.8"   Gusts: NA
Location:  45.94°N, 98.78°W
Report Text: KABR 260140Z AUTO 14010KT 1SM -SN BR SCT005 OVC013 00/M02 A2980 RMK AO2 P0003 T00001017
Loading
Personal Weather Stations






























Interactive Weather Map New forecast layout! Learn more

10-Day Weather Forecast

Advertisements
Track Severe Weather on mobile